createdAt,value
2023-03-23T00:02:04.535Z,4.57
2023-03-23T00:04:31.819Z,4.75
2023-03-23T00:06:58.729Z,2.50
2023-03-23T00:09:25.930Z,3.42
2023-03-23T00:11:53.805Z,4.10
2023-03-23T00:14:23.662Z,3.92
2023-03-23T00:16:51.948Z,6.03
2023-03-23T00:19:20.563Z,3.25
2023-03-23T00:21:47.605Z,4.13
2023-03-23T00:24:18.959Z,3.53
2023-03-23T00:26:48.058Z,2.85
2023-03-23T00:29:24.000Z,4.35
2023-03-23T00:31:50.989Z,3.60
2023-03-23T00:34:21.789Z,3.00
2023-03-23T00:36:54.613Z,3.80
2023-03-23T00:39:21.501Z,3.92
2023-03-23T00:41:49.020Z,5.53
2023-03-23T00:44:22.763Z,3.15
2023-03-23T00:46:50.923Z,3.20
2023-03-23T00:49:21.069Z,3.10
2023-03-23T00:51:47.933Z,2.53
2023-03-23T00:54:15.153Z,2.10
2023-03-23T00:56:42.090Z,5.03
2023-03-23T00:59:09.130Z,3.65
2023-03-23T01:01:36.846Z,3.22
2023-03-23T01:06:36.408Z,3.10
2023-03-23T01:09:04.533Z,3.55
2023-03-23T01:11:31.309Z,3.60
2023-03-23T01:13:58.272Z,2.75
2023-03-23T01:16:25.982Z,4.90
2023-03-23T01:18:52.989Z,3.08
2023-03-23T01:21:21.965Z,2.88
2023-03-23T01:23:49.512Z,3.10
2023-03-23T01:26:20.763Z,2.88
2023-03-23T01:28:48.447Z,5.07
2023-03-23T01:31:24.375Z,5.70
2023-03-23T01:33:55.773Z,3.35
2023-03-23T01:36:27.861Z,3.80
2023-03-23T01:38:55.142Z,4.50
2023-03-23T01:41:22.794Z,3.17
2023-03-23T01:43:55.283Z,3.85
2023-03-23T01:46:23.840Z,7.15
2023-03-23T01:48:52.106Z,3.90
2023-03-23T01:51:22.749Z,2.67
2023-03-23T01:53:58.108Z,3.08
2023-03-23T01:56:31.027Z,3.70
2023-03-23T01:58:57.880Z,4.22
2023-03-23T02:01:28.500Z,3.55
2023-03-23T02:03:57.696Z,5.05
2023-03-23T02:06:24.743Z,3.70
2023-03-23T02:08:53.226Z,2.83
2023-03-23T02:11:23.206Z,4.20
2023-03-23T02:13:51.804Z,4.40
2023-03-23T02:16:24.260Z,4.43
2023-03-23T02:19:04.741Z,2.38
2023-03-23T02:21:48.416Z,4.95
2023-03-23T02:24:45.005Z,1.85
2023-03-23T02:27:22.493Z,2.90
2023-03-23T02:30:07.534Z,6.22
2023-03-23T02:33:07.640Z,2.13
2023-03-23T02:35:45.369Z,3.15
2023-03-23T02:38:23.904Z,2.03
2023-03-23T02:40:52.440Z,2.38
2023-03-23T02:43:24.005Z,3.15
2023-03-23T02:46:07.516Z,2.25
2023-03-23T02:48:36.745Z,5.38
2023-03-23T02:53:36.616Z,1.80
2023-03-23T02:56:07.466Z,2.63
2023-03-23T02:58:34.960Z,1.98
2023-03-23T03:01:07.692Z,2.42
2023-03-23T03:03:34.780Z,2.30
2023-03-23T03:06:06.565Z,3.42
2023-03-23T03:08:56.081Z,3.78
2023-03-23T03:11:29.494Z,3.58
2023-03-23T03:16:40.028Z,2.20
2023-03-23T03:19:20.665Z,2.40
2023-03-23T03:21:51.110Z,2.95
2023-03-23T03:24:21.908Z,3.50
2023-03-23T03:26:52.927Z,2.50
2023-03-23T03:29:24.315Z,3.13
2023-03-23T03:31:57.002Z,1.70
2023-03-23T03:34:25.387Z,4.53
2023-03-23T03:36:56.804Z,2.95
2023-03-23T03:39:23.824Z,2.45
2023-03-23T03:41:51.022Z,2.53
2023-03-23T03:44:17.865Z,2.55
2023-03-23T03:46:44.753Z,3.15
2023-03-23T03:49:14.077Z,1.92
2023-03-23T03:51:41.940Z,3.65
2023-03-23T03:54:09.307Z,2.83
2023-03-23T03:56:38.192Z,6.00
2023-03-23T03:59:21.454Z,1.98
2023-03-23T04:01:32.370Z,4.22
2023-03-23T04:03:59.621Z,4.63
2023-03-23T04:06:29.099Z,3.92
2023-03-23T04:09:07.880Z,3.00
2023-03-23T04:11:33.323Z,3.33
2023-03-23T04:14:00.209Z,2.65
2023-03-23T04:16:30.795Z,3.13
2023-03-23T04:18:58.603Z,3.53
2023-03-23T04:21:30.075Z,2.00
2023-03-23T04:24:00.929Z,3.22
2023-03-23T04:26:30.191Z,3.17
2023-03-23T04:28:57.651Z,3.00
2023-03-23T04:31:27.568Z,4.00
2023-03-23T04:33:57.626Z,1.67
2023-03-23T04:36:27.456Z,2.35
2023-03-23T04:39:14.729Z,2.97
2023-03-23T04:41:41.833Z,3.38
2023-03-23T04:44:08.815Z,2.70
2023-03-23T04:46:35.854Z,3.17
2023-03-23T04:49:03.283Z,3.33
2023-03-23T04:51:32.596Z,3.00
2023-03-23T04:53:59.452Z,2.95
2023-03-23T04:56:26.212Z,3.70
2023-03-23T04:58:53.208Z,3.53
2023-03-23T05:01:20.057Z,3.47
2023-03-23T05:03:46.887Z,4.78
2023-03-23T05:06:13.984Z,4.13
2023-03-23T05:08:40.782Z,4.35
2023-03-23T05:11:08.148Z,5.25
2023-03-23T05:13:34.994Z,3.97
2023-03-23T05:18:33.901Z,3.97
2023-03-23T05:21:02.207Z,4.78
2023-03-23T05:23:32.007Z,3.15
2023-03-23T05:26:02.113Z,3.83
2023-03-23T05:28:29.953Z,5.60
2023-03-23T05:30:57.166Z,3.53
2023-03-23T05:33:24.096Z,4.80
2023-03-23T05:35:51.620Z,6.40
2023-03-23T05:38:19.291Z,5.78
2023-03-23T05:40:46.206Z,6.68
2023-03-23T05:43:13.442Z,4.55
2023-03-23T05:45:40.910Z,2.88
2023-03-23T05:48:08.478Z,6.22
2023-03-23T05:50:35.781Z,5.40
2023-03-23T05:53:04.835Z,3.47
2023-03-23T05:55:31.628Z,5.32
2023-03-23T05:58:00.285Z,7.82
2023-03-23T06:00:30.453Z,7.63
2023-03-23T06:02:58.034Z,7.32
2023-03-23T06:05:26.889Z,4.57
2023-03-23T06:07:55.123Z,7.28
2023-03-23T06:10:23.001Z,4.68
2023-03-23T06:12:51.598Z,7.53
2023-03-23T06:15:19.409Z,8.82
2023-03-23T06:17:46.178Z,6.45
2023-03-23T06:20:13.328Z,5.03
2023-03-23T06:22:41.342Z,6.72
2023-03-23T06:25:09.828Z,7.70
2023-03-23T06:27:36.707Z,8.55
2023-03-23T06:32:33.696Z,9.27
2023-03-23T06:35:00.636Z,7.38
2023-03-23T06:37:27.567Z,8.43
2023-03-23T06:39:55.212Z,8.57
2023-03-23T06:42:25.430Z,5.70
2023-03-23T06:44:52.976Z,8.15
2023-03-23T06:47:19.764Z,6.03
2023-03-23T06:49:46.880Z,5.20
2023-03-23T06:52:13.639Z,7.00
2023-03-23T06:54:41.375Z,6.57
2023-03-23T06:57:09.516Z,5.90
2023-03-23T06:59:36.576Z,7.15
2023-03-23T07:02:03.674Z,6.45
2023-03-23T07:04:30.702Z,5.05
2023-03-23T07:06:57.686Z,5.07
2023-03-23T07:09:37.654Z,7.03
2023-03-23T07:12:09.676Z,4.43
2023-03-23T07:14:36.961Z,7.70
2023-03-23T07:17:05.215Z,4.20
2023-03-23T07:19:32.138Z,4.97
2023-03-23T07:21:58.942Z,3.05
2023-03-23T07:24:26.054Z,2.15
2023-03-23T07:26:53.196Z,3.45
2023-03-23T07:29:20.027Z,3.53
2023-03-23T07:31:47.213Z,3.53
2023-03-23T07:34:14.736Z,3.60
2023-03-23T07:36:41.905Z,1.70
2023-03-23T07:39:08.822Z,4.07
2023-03-23T07:41:35.902Z,2.03
2023-03-23T07:44:02.756Z,1.95
2023-03-23T07:46:29.707Z,2.38
2023-03-23T07:48:57.790Z,3.10
2023-03-23T07:51:25.318Z,1.70
2023-03-23T07:53:52.788Z,3.05
2023-03-23T07:56:20.912Z,3.95
2023-03-23T07:58:48.065Z,2.92
2023-03-23T08:01:15.178Z,3.25
2023-03-23T08:03:42.217Z,2.85
2023-03-23T08:06:09.971Z,1.48
2023-03-23T08:08:38.265Z,1.65
2023-03-23T08:13:32.171Z,3.97
2023-03-23T08:15:59.103Z,4.35
2023-03-23T08:18:26.485Z,2.25
2023-03-23T08:20:55.506Z,2.88
2023-03-23T08:23:22.760Z,2.17
2023-03-23T08:25:50.044Z,5.15
2023-03-23T08:28:19.023Z,4.25
2023-03-23T08:30:45.813Z,5.15
2023-03-23T08:33:13.249Z,2.60
2023-03-23T08:35:40.389Z,3.35
2023-03-23T08:38:07.364Z,1.98
2023-03-23T08:40:34.122Z,2.13
2023-03-23T08:43:01.287Z,2.92
2023-03-23T08:45:29.073Z,5.90
2023-03-23T08:47:56.252Z,14.93
2023-03-23T08:50:26.871Z,2.45
2023-03-23T08:52:55.190Z,5.43
2023-03-23T08:55:23.088Z,4.05
2023-03-23T08:57:49.898Z,3.72
2023-03-23T09:00:19.936Z,3.65
2023-03-23T09:02:49.496Z,3.28
2023-03-23T09:05:18.362Z,3.85
2023-03-23T09:07:48.020Z,5.35
2023-03-23T09:10:15.927Z,2.40
2023-03-23T09:12:43.815Z,5.72
2023-03-23T09:15:14.959Z,2.28
2023-03-23T09:17:46.388Z,2.58
2023-03-23T09:20:15.227Z,2.17
2023-03-23T09:22:45.558Z,3.63
2023-03-23T09:25:15.694Z,3.22
2023-03-23T09:27:44.046Z,3.95
2023-03-23T09:30:13.474Z,2.38
2023-03-23T09:32:40.520Z,3.55
2023-03-23T09:35:15.378Z,3.97
2023-03-23T09:37:42.190Z,3.38
2023-03-23T09:40:15.787Z,5.55
2023-03-23T09:42:51.835Z,5.75
2023-03-23T09:45:58.297Z,2.90
2023-03-23T09:48:49.522Z,2.50
2023-03-23T09:51:41.623Z,2.50
2023-03-23T09:54:25.511Z,2.58
2023-03-23T09:56:53.041Z,3.55
2023-03-23T09:59:26.191Z,3.33
2023-03-23T10:01:59.126Z,4.13
2023-03-23T10:04:40.353Z,4.25
2023-03-23T10:07:19.008Z,3.72
2023-03-23T10:09:48.650Z,4.57
2023-03-23T10:12:39.518Z,3.88
2023-03-23T10:15:07.942Z,2.33
2023-03-23T10:18:07.742Z,3.58
2023-03-23T10:20:54.417Z,2.22
2023-03-23T10:23:21.360Z,3.15
2023-03-23T10:26:01.780Z,2.15
2023-03-23T10:28:42.324Z,3.45
2023-03-23T10:31:17.163Z,3.58
2023-03-23T10:33:50.343Z,2.08
2023-03-23T10:36:26.534Z,2.25
2023-03-23T10:41:32.382Z,4.13
2023-03-23T10:43:59.357Z,2.53
2023-03-23T10:46:40.213Z,3.42
2023-03-23T10:49:14.132Z,3.95
2023-03-23T10:51:45.681Z,1.33
2023-03-23T10:54:12.471Z,2.30
2023-03-23T10:56:58.730Z,1.65
2023-03-23T10:59:31.699Z,1.75
2023-03-23T11:02:04.172Z,1.67
2023-03-23T11:04:32.515Z,2.05
2023-03-23T11:07:02.253Z,1.42
2023-03-23T11:09:38.059Z,2.88
2023-03-23T11:14:36.492Z,2.35
2023-03-23T11:17:15.821Z,2.28
2023-03-23T11:19:46.075Z,1.38
2023-03-23T11:22:32.762Z,2.03
2023-03-23T11:27:33.535Z,2.22
2023-03-23T11:30:06.823Z,2.45
2023-03-23T11:32:33.694Z,4.30
2023-03-23T11:37:44.238Z,1.40
2023-03-23T11:40:12.605Z,1.80
2023-03-23T11:42:43.645Z,1.77
2023-03-23T11:45:41.552Z,1.20
2023-03-23T11:48:48.009Z,2.95
2023-03-23T11:51:18.245Z,1.20
2023-03-23T11:53:54.303Z,1.40
2023-03-23T11:56:29.953Z,2.08
2023-03-23T11:58:58.507Z,1.88
2023-03-23T12:01:50.127Z,1.70
2023-03-23T12:04:47.553Z,3.65
2023-03-23T12:07:34.843Z,4.53
2023-03-23T12:10:07.842Z,2.13
2023-03-23T12:13:00.131Z,4.07
2023-03-23T12:15:39.778Z,2.53
2023-03-23T12:18:08.109Z,3.63
2023-03-23T12:21:07.822Z,2.92
2023-03-23T12:23:47.775Z,2.05
2023-03-23T12:26:39.963Z,3.45
2023-03-23T12:29:07.942Z,3.53
2023-03-23T12:31:37.719Z,3.58
2023-03-23T12:34:08.000Z,2.58
2023-03-23T12:37:00.332Z,4.38
2023-03-23T12:39:42.345Z,3.45
2023-03-23T12:42:41.080Z,2.72
2023-03-23T12:45:20.463Z,2.17
2023-03-23T12:47:49.050Z,2.50
2023-03-23T12:50:37.160Z,3.97
2023-03-23T12:53:07.937Z,3.72
2023-03-23T12:55:46.524Z,2.75
2023-03-23T12:58:18.451Z,3.92
2023-03-23T13:00:57.685Z,2.83
2023-03-23T13:03:40.027Z,3.55
2023-03-23T13:06:07.817Z,3.08
2023-03-23T13:08:39.369Z,2.20
2023-03-23T13:11:06.906Z,3.60
2023-03-23T13:13:55.244Z,3.20
2023-03-23T13:16:49.623Z,1.95
2023-03-23T13:19:28.104Z,3.67
2023-03-23T13:21:57.935Z,2.90
2023-03-23T13:24:29.646Z,2.40
2023-03-23T13:26:59.462Z,3.70
2023-03-23T13:29:28.822Z,1.40
2023-03-23T13:32:08.228Z,2.58
2023-03-23T13:34:37.335Z,1.50
2023-03-23T13:37:07.972Z,3.72
2023-03-23T13:39:50.379Z,2.20
2023-03-23T13:42:17.153Z,1.67
2023-03-23T13:44:50.112Z,2.40
2023-03-23T13:47:27.767Z,2.30
2023-03-23T13:50:04.056Z,4.25
2023-03-23T13:52:49.167Z,4.22
2023-03-23T13:55:23.407Z,2.00
2023-03-23T13:58:06.902Z,2.20
2023-03-23T14:00:33.706Z,2.67
2023-03-23T14:03:07.924Z,4.40
2023-03-23T14:05:47.097Z,2.55
2023-03-23T14:08:23.016Z,2.03
2023-03-23T14:10:49.789Z,1.85
2023-03-23T14:13:21.203Z,2.75
2023-03-23T14:16:07.843Z,2.08
2023-03-23T14:18:39.617Z,2.60
2023-03-23T14:21:07.904Z,1.83
2023-03-23T14:23:38.831Z,1.30
2023-03-23T14:26:06.906Z,2.90
2023-03-23T14:28:41.063Z,2.67
2023-03-23T14:31:28.286Z,1.40
2023-03-23T14:33:57.918Z,3.33
2023-03-23T14:36:29.447Z,1.38
2023-03-23T14:39:08.264Z,1.75
2023-03-23T14:41:36.678Z,1.45
2023-03-23T14:44:08.034Z,1.63
2023-03-23T14:46:35.607Z,1.77
2023-03-23T14:51:32.306Z,2.42
2023-03-23T14:54:02.027Z,1.73
2023-03-23T14:56:37.352Z,1.60
2023-03-23T15:01:39.301Z,2.50
2023-03-23T15:04:08.303Z,1.92
2023-03-23T15:06:38.254Z,2.08
2023-03-23T15:09:08.168Z,1.42
2023-03-23T15:11:37.676Z,1.73
2023-03-23T15:14:07.930Z,3.25
2023-03-23T15:16:36.010Z,2.28
2023-03-23T15:19:08.055Z,2.42
2023-03-23T15:21:47.380Z,1.25
2023-03-23T15:24:35.613Z,2.00
2023-03-23T15:27:07.991Z,2.25
2023-03-23T15:29:34.823Z,2.10
2023-03-23T15:32:04.917Z,2.20
2023-03-23T15:34:42.449Z,1.80
2023-03-23T15:37:40.505Z,2.70
2023-03-23T15:40:17.961Z,1.38
2023-03-23T15:42:44.875Z,2.25
2023-03-23T15:45:12.655Z,2.45
2023-03-23T15:47:42.241Z,1.45
2023-03-23T15:50:16.559Z,4.00
2023-03-23T15:52:44.916Z,2.95
2023-03-23T15:55:28.045Z,2.08
2023-03-23T15:57:56.851Z,1.95
2023-03-23T16:00:28.414Z,1.52
2023-03-23T16:05:33.769Z,2.50
2023-03-23T16:08:01.539Z,2.00
2023-03-23T16:10:29.278Z,2.17
2023-03-23T16:12:56.144Z,3.88
2023-03-23T16:15:23.187Z,1.85
2023-03-23T16:17:50.211Z,2.67
2023-03-23T16:20:22.076Z,2.50
2023-03-23T16:22:49.878Z,2.45
2023-03-23T16:25:19.073Z,3.65
2023-03-23T16:27:51.788Z,4.85
2023-03-23T16:30:25.220Z,3.75
2023-03-23T16:32:54.113Z,2.80
2023-03-23T16:35:22.451Z,4.25
2023-03-23T16:37:51.473Z,4.93
2023-03-23T16:40:33.428Z,4.93
2023-03-23T16:43:00.392Z,2.08
2023-03-23T16:45:27.562Z,4.03
2023-03-23T16:47:56.905Z,3.65
2023-03-23T16:50:25.782Z,2.63
2023-03-23T16:52:52.688Z,4.72
2023-03-23T16:55:19.574Z,7.38
2023-03-23T16:57:46.468Z,4.80
2023-03-23T17:00:16.483Z,4.88
2023-03-23T17:02:45.209Z,3.20
2023-03-23T17:05:12.415Z,5.13
2023-03-23T17:07:40.715Z,5.72
2023-03-23T17:10:09.805Z,2.88
2023-03-23T17:12:37.077Z,5.18
2023-03-23T17:15:04.582Z,3.40
2023-03-23T17:17:31.670Z,2.38
2023-03-23T17:19:58.720Z,4.43
2023-03-23T17:22:26.262Z,11.38
2023-03-23T17:24:53.718Z,7.50
2023-03-23T17:27:22.140Z,4.47
2023-03-23T17:29:49.243Z,3.72
2023-03-23T17:32:16.221Z,3.40
2023-03-23T17:34:43.298Z,5.13
2023-03-23T17:37:10.832Z,4.57
2023-03-23T17:39:43.344Z,5.10
2023-03-23T17:42:11.321Z,5.20
2023-03-23T17:44:38.357Z,6.57
2023-03-23T17:47:05.494Z,4.35
2023-03-23T17:49:32.799Z,6.80
2023-03-23T17:52:00.300Z,3.85
2023-03-23T17:54:29.748Z,6.13
2023-03-23T17:56:58.884Z,7.93
2023-03-23T17:59:26.327Z,3.78
2023-03-23T18:01:53.816Z,4.93
2023-03-23T18:04:21.056Z,5.18
2023-03-23T18:06:48.017Z,14.43
2023-03-23T18:09:15.776Z,6.82
2023-03-23T18:11:42.637Z,5.60
2023-03-23T18:14:09.422Z,4.60
2023-03-23T18:16:36.539Z,4.72
2023-03-23T18:19:03.823Z,3.50
2023-03-23T18:21:30.945Z,4.47
2023-03-23T18:23:59.536Z,6.97
2023-03-23T18:26:27.746Z,6.35
2023-03-23T18:28:55.010Z,6.07
2023-03-23T18:31:22.472Z,6.20
2023-03-23T18:33:51.045Z,7.80
2023-03-23T18:36:20.916Z,9.95
2023-03-23T18:38:48.869Z,6.45
2023-03-23T18:41:17.243Z,6.40
2023-03-23T18:43:44.649Z,4.72
2023-03-23T18:46:11.570Z,4.90
2023-03-23T18:48:38.786Z,8.30
2023-03-23T18:53:33.370Z,5.10
2023-03-23T18:56:07.083Z,5.82
2023-03-23T18:58:34.252Z,5.22
2023-03-23T19:01:07.162Z,10.85
2023-03-23T19:03:35.520Z,6.60
2023-03-23T19:06:03.071Z,11.25
2023-03-23T19:08:31.359Z,11.13
2023-03-23T19:11:01.804Z,7.55
2023-03-23T19:13:30.483Z,6.88
2023-03-23T19:15:57.382Z,8.02
2023-03-23T19:18:24.426Z,7.97
2023-03-23T19:23:22.611Z,6.28
2023-03-23T19:25:49.883Z,9.63
2023-03-23T19:30:49.978Z,7.55
2023-03-23T19:33:17.373Z,6.93
2023-03-23T19:35:46.345Z,5.47
2023-03-23T19:38:13.600Z,7.90
2023-03-23T19:40:51.639Z,8.13
2023-03-23T19:43:19.105Z,7.57
2023-03-23T19:45:46.334Z,8.05
2023-03-23T19:48:13.164Z,6.50
2023-03-23T19:50:40.738Z,9.48
2023-03-23T19:53:07.603Z,6.75
2023-03-23T19:55:34.517Z,8.15
2023-03-23T19:58:01.316Z,12.93
2023-03-23T20:00:28.698Z,9.70
2023-03-23T20:02:58.194Z,8.88
2023-03-23T20:05:25.139Z,9.88
2023-03-23T20:07:53.911Z,9.77
2023-03-23T20:10:21.298Z,6.90
2023-03-23T20:12:48.426Z,8.13
2023-03-23T20:15:15.691Z,7.30
2023-03-23T20:17:42.925Z,8.93
2023-03-23T20:20:11.262Z,9.80
2023-03-23T20:22:38.181Z,8.35
2023-03-23T20:27:32.651Z,7.97
2023-03-23T20:30:00.095Z,12.20
2023-03-23T20:32:33.446Z,7.43
2023-03-23T20:37:34.906Z,8.77
2023-03-23T20:40:03.442Z,9.48
2023-03-23T20:42:34.695Z,11.40
2023-03-23T20:45:02.780Z,7.82
2023-03-23T20:47:29.694Z,8.73
2023-03-23T20:49:57.175Z,10.70
2023-03-23T20:52:26.570Z,8.95
2023-03-23T20:54:55.434Z,8.73
2023-03-23T20:57:23.307Z,11.77
2023-03-23T20:59:51.715Z,10.48
2023-03-23T21:02:20.386Z,7.95
2023-03-23T21:04:49.206Z,7.47
2023-03-23T21:07:16.766Z,8.75
2023-03-23T21:09:43.792Z,8.95
2023-03-23T21:12:11.324Z,10.68
2023-03-23T21:14:39.676Z,11.45
2023-03-23T21:17:07.262Z,9.38
2023-03-23T21:19:34.869Z,11.70
2023-03-23T21:22:01.982Z,11.00
2023-03-23T21:24:31.864Z,8.93
2023-03-23T21:27:02.428Z,13.95
2023-03-23T21:29:29.481Z,9.40
2023-03-23T21:34:27.784Z,11.77
2023-03-23T21:36:54.608Z,9.85
2023-03-23T21:39:22.498Z,10.85
2023-03-23T21:41:50.079Z,9.02
2023-03-23T21:44:18.468Z,11.88
2023-03-23T21:46:45.416Z,10.60
2023-03-23T21:49:14.575Z,12.25
2023-03-23T21:51:42.071Z,13.68
2023-03-23T21:54:10.588Z,12.07
2023-03-23T21:56:38.268Z,10.40
2023-03-23T22:01:32.489Z,10.75
2023-03-23T22:03:59.372Z,15.65
2023-03-23T22:06:28.695Z,11.98
2023-03-23T22:08:56.458Z,13.93
2023-03-23T22:11:27.817Z,14.20
2023-03-23T22:13:56.329Z,9.77
2023-03-23T22:16:24.041Z,11.95
2023-03-23T22:18:52.568Z,9.52
2023-03-23T22:21:22.260Z,12.55
2023-03-23T22:23:49.584Z,10.63
2023-03-23T22:26:17.449Z,13.98
2023-03-23T22:28:49.815Z,10.10
2023-03-23T22:31:25.639Z,12.65
2023-03-23T22:33:56.868Z,13.18
2023-03-23T22:36:26.634Z,10.98
2023-03-23T22:38:55.292Z,9.57
2023-03-23T22:41:25.497Z,11.00
2023-03-23T22:43:52.735Z,11.93
2023-03-23T22:46:20.081Z,14.07
2023-03-23T22:48:46.895Z,11.55
2023-03-23T22:51:15.997Z,9.82
2023-03-23T22:53:43.172Z,10.80
2023-03-23T22:56:10.678Z,11.70
2023-03-23T22:58:38.408Z,13.27
2023-03-23T23:01:07.343Z,12.65
2023-03-23T23:03:34.740Z,11.02
2023-03-23T23:06:02.382Z,9.95
2023-03-23T23:08:30.337Z,12.18
2023-03-23T23:10:58.864Z,13.88
2023-03-23T23:13:26.734Z,12.43
2023-03-23T23:15:55.474Z,12.48
2023-03-23T23:18:23.199Z,13.02
2023-03-23T23:20:52.656Z,11.80
2023-03-23T23:23:19.933Z,12.00
2023-03-23T23:25:47.815Z,11.23
2023-03-23T23:28:14.781Z,11.93
2023-03-23T23:30:41.625Z,10.57
2023-03-23T23:33:09.546Z,11.70
2023-03-23T23:35:38.773Z,11.52
2023-03-23T23:40:36.134Z,12.35
2023-03-23T23:43:03.822Z,9.73
2023-03-23T23:45:31.767Z,13.68
2023-03-23T23:47:59.558Z,10.40
2023-03-23T23:50:27.185Z,10.02
2023-03-23T23:52:54.511Z,8.68
2023-03-23T23:55:21.807Z,10.25
2023-03-23T23:57:49.379Z,11.35
